sensor_id;sensor_type;location;lat;lon;timestamp;pressure;altitude;pressure_sealevel;temperature;humidity
55070;BME280;40967;52.070;8.596;2023-08-31T00:00:12;99645.69;;;12.74;100.00
55070;BME280;40967;52.070;8.596;2023-08-31T00:02:39;99653.97;;;12.82;100.00
55070;BME280;40967;52.070;8.596;2023-08-31T00:05:08;99648.50;;;12.82;100.00
55070;BME280;40967;52.070;8.596;2023-08-31T00:07:33;99646.06;;;12.81;100.00
55070;BME280;40967;52.070;8.596;2023-08-31T00:09:59;99640.22;;;12.74;100.00
55070;BME280;40967;52.070;8.596;2023-08-31T00:12:25;99648.31;;;12.79;100.00
55070;BME280;40967;52.070;8.596;2023-08-31T00:14:50;99650.41;;;12.82;100.00
55070;BME280;40967;52.070;8.596;2023-08-31T00:17:16;99642.06;;;12.78;100.00
55070;BME280;40967;52.070;8.596;2023-08-31T00:19:43;99649.31;;;12.83;100.00
55070;BME280;40967;52.070;8.596;2023-08-31T00:22:08;99655.16;;;12.76;100.00
55070;BME280;40967;52.070;8.596;2023-08-31T00:24:33;99646.19;;;12.76;100.00
55070;BME280;40967;52.070;8.596;2023-08-31T00:27:05;99649.53;;;12.73;100.00
55070;BME280;40967;52.070;8.596;2023-08-31T00:29:32;99653.66;;;12.70;100.00
55070;BME280;40967;52.070;8.596;2023-08-31T00:31:57;99655.69;;;12.65;100.00
55070;BME280;40967;52.070;8.596;2023-08-31T00:34:22;99642.88;;;12.65;100.00
55070;BME280;40967;52.070;8.596;2023-08-31T00:36:48;99647.44;;;12.56;100.00
55070;BME280;40967;52.070;8.596;2023-08-31T00:39:14;99653.66;;;12.56;100.00
55070;BME280;40967;52.070;8.596;2023-08-31T00:41:39;99654.59;;;12.52;100.00
55070;BME280;40967;52.070;8.596;2023-08-31T00:44:05;99659.41;;;12.55;100.00
55070;BME280;40967;52.070;8.596;2023-08-31T00:46:31;99667.38;;;12.51;100.00
55070;BME280;40967;52.070;8.596;2023-08-31T00:48:57;99675.34;;;12.48;100.00
55070;BME280;40967;52.070;8.596;2023-08-31T00:51:24;99666.34;;;12.47;100.00
55070;BME280;40967;52.070;8.596;2023-08-31T00:53:51;99665.69;;;12.42;100.00
55070;BME280;40967;52.070;8.596;2023-08-31T00:56:18;99666.25;;;12.39;100.00
55070;BME280;40967;52.070;8.596;2023-08-31T00:58:44;99665.47;;;12.38;100.00
55070;BME280;40967;52.070;8.596;2023-08-31T01:01:35;99668.97;;;12.39;100.00
55070;BME280;40967;52.070;8.596;2023-08-31T01:06:47;99675.84;;;12.36;100.00
55070;BME280;40967;52.070;8.596;2023-08-31T01:15:04;99671.59;;;12.44;100.00
55070;BME280;40967;52.070;8.596;2023-08-31T01:17:39;99673.53;;;12.43;100.00
55070;BME280;40967;52.070;8.596;2023-08-31T01:20:08;99670.81;;;12.43;100.00
55070;BME280;40967;52.070;8.596;2023-08-31T01:22:47;99671.59;;;12.44;100.00
55070;BME280;40967;52.070;8.596;2023-08-31T01:25:13;99670.31;;;12.41;100.00
55070;BME280;40967;52.070;8.596;2023-08-31T01:27:38;99671.91;;;12.42;100.00
55070;BME280;40967;52.070;8.596;2023-08-31T01:30:06;99668.69;;;12.40;100.00
55070;BME280;40967;52.070;8.596;2023-08-31T01:32:31;99672.72;;;12.43;100.00
55070;BME280;40967;52.070;8.596;2023-08-31T01:34:57;99659.13;;;12.43;100.00
55070;BME280;40967;52.070;8.596;2023-08-31T01:43:03;99659.63;;;12.45;100.00
55070;BME280;40967;52.070;8.596;2023-08-31T01:45:32;99651.25;;;12.41;100.00
55070;BME280;40967;52.070;8.596;2023-08-31T01:48:01;99662.84;;;12.47;100.00
55070;BME280;40967;52.070;8.596;2023-08-31T01:50:26;99665.56;;;12.47;100.00
55070;BME280;40967;52.070;8.596;2023-08-31T01:52:52;99666.16;;;12.44;100.00
55070;BME280;40967;52.070;8.596;2023-08-31T01:55:21;99668.69;;;12.40;100.00
55070;BME280;40967;52.070;8.596;2023-08-31T01:57:47;99665.47;;;12.38;100.00
55070;BME280;40967;52.070;8.596;2023-08-31T02:00:14;99675.53;;;12.38;100.00
55070;BME280;40967;52.070;8.596;2023-08-31T02:02:40;99658.50;;;12.32;100.00
55070;BME280;40967;52.070;8.596;2023-08-31T02:05:07;99664.97;;;12.36;100.00
55070;BME280;40967;52.070;8.596;2023-08-31T02:07:32;99661.94;;;12.38;100.00
55070;BME280;40967;52.070;8.596;2023-08-31T02:09:58;99670.59;;;12.40;100.00
55070;BME280;40967;52.070;8.596;2023-08-31T02:12:23;99676.03;;;12.40;100.00
55070;BME280;40967;52.070;8.596;2023-08-31T02:14:49;99670.59;;;12.40;100.00
55070;BME280;40967;52.070;8.596;2023-08-31T02:17:15;99668.19;;;12.38;100.00
55070;BME280;40967;52.070;8.596;2023-08-31T02:19:40;99665.16;;;12.40;100.00
55070;BME280;40967;52.070;8.596;2023-08-31T02:22:05;99677.66;;;12.41;100.00
55070;BME280;40967;52.070;8.596;2023-08-31T02:24:31;99662.13;;;12.41;100.00
55070;BME280;40967;52.070;8.596;2023-08-31T02:26:56;99665.69;;;12.42;100.00
55070;BME280;40967;52.070;8.596;2023-08-31T02:29:22;99656.19;;;12.39;100.00
55070;BME280;40967;52.070;8.596;2023-08-31T02:31:47;99658.09;;;12.39;100.00
55070;BME280;40967;52.070;8.596;2023-08-31T02:34:13;99659.22;;;12.38;100.00
55070;BME280;40967;52.070;8.596;2023-08-31T02:36:39;99654.28;;;12.40;100.00
55070;BME280;40967;52.070;8.596;2023-08-31T02:39:04;99656.41;;;12.43;100.00
55070;BME280;40967;52.070;8.596;2023-08-31T02:41:29;99658.50;;;12.46;100.00
55070;BME280;40967;52.070;8.596;2023-08-31T02:43:55;99652.84;;;12.42;100.00
55070;BME280;40967;52.070;8.596;2023-08-31T02:46:20;99655.88;;;12.41;100.00
55070;BME280;40967;52.070;8.596;2023-08-31T02:48:46;99655.28;;;12.44;100.00
55070;BME280;40967;52.070;8.596;2023-08-31T02:51:12;99657.22;;;12.43;100.00
55070;BME280;40967;52.070;8.596;2023-08-31T02:53:38;99653.66;;;12.43;100.00
55070;BME280;40967;52.070;8.596;2023-08-31T02:56:03;99655.38;;;12.39;100.00
55070;BME280;40967;52.070;8.596;2023-08-31T02:58:29;99654.59;;;12.38;100.00
55070;BME280;40967;52.070;8.596;2023-08-31T03:00:54;99662.03;;;12.46;100.00
55070;BME280;40967;52.070;8.596;2023-08-31T03:03:21;99662.44;;;12.53;100.00
55070;BME280;40967;52.070;8.596;2023-08-31T03:05:46;99661.31;;;12.54;100.00
55070;BME280;40967;52.070;8.596;2023-08-31T03:08:12;99665.66;;;12.55;100.00
55070;BME280;40967;52.070;8.596;2023-08-31T03:10:38;99669.69;;;12.58;100.00
55070;BME280;40967;52.070;8.596;2023-08-31T03:13:03;99659.91;;;12.57;100.00
55070;BME280;40967;52.070;8.596;2023-08-31T03:15:29;99664.34;;;12.53;100.00
55070;BME280;40967;52.070;8.596;2023-08-31T03:17:54;99665.78;;;12.50;100.00
55070;BME280;40967;52.070;8.596;2023-08-31T03:20:20;99646.22;;;12.35;100.00
55070;BME280;40967;52.070;8.596;2023-08-31T03:22:45;99665.97;;;12.40;100.00
55070;BME280;40967;52.070;8.596;2023-08-31T03:25:11;99675.03;;;12.36;100.00
55070;BME280;40967;52.070;8.596;2023-08-31T03:27:37;99682.78;;;12.29;100.00
55070;BME280;40967;52.070;8.596;2023-08-31T03:30:02;99679.03;;;12.25;100.00
55070;BME280;40967;52.070;8.596;2023-08-31T03:32:30;99667.84;;;12.13;100.00
55070;BME280;40967;52.070;8.596;2023-08-31T03:34:56;99685.19;;;12.17;100.00
55070;BME280;40967;52.070;8.596;2023-08-31T03:37:21;99678.72;;;12.13;100.00
55070;BME280;40967;52.070;8.596;2023-08-31T03:39:49;99667.03;;;11.99;100.00
55070;BME280;40967;52.070;8.596;2023-08-31T03:42:15;99692.63;;;12.11;100.00
55070;BME280;40967;52.070;8.596;2023-08-31T03:44:41;99686.47;;;12.06;100.00
55070;BME280;40967;52.070;8.596;2023-08-31T03:47:06;99683.63;;;11.97;100.00
55070;BME280;40967;52.070;8.596;2023-08-31T03:49:32;99692.81;;;12.01;100.00
55070;BME280;40967;52.070;8.596;2023-08-31T03:51:58;99682.22;;;11.86;100.00
55070;BME280;40967;52.070;8.596;2023-08-31T03:54:25;99691.88;;;11.92;100.00
55070;BME280;40967;52.070;8.596;2023-08-31T03:56:50;99699.25;;;11.92;100.00
55070;BME280;40967;52.070;8.596;2023-08-31T03:59:16;99698.44;;;11.91;100.00
55070;BME280;40967;52.070;8.596;2023-08-31T04:01:44;99696.00;;;11.90;100.00
55070;BME280;40967;52.070;8.596;2023-08-31T04:04:10;99692.78;;;11.88;100.00
55070;BME280;40967;52.070;8.596;2023-08-31T04:06:35;99704.94;;;11.90;100.00
55070;BME280;40967;52.070;8.596;2023-08-31T04:09:01;99710.69;;;11.89;100.00
55070;BME280;40967;52.070;8.596;2023-08-31T04:11:26;99716.13;;;11.89;100.00
55070;BME280;40967;52.070;8.596;2023-08-31T04:13:52;99712.63;;;11.88;100.00
55070;BME280;40967;52.070;8.596;2023-08-31T04:16:17;99723.97;;;11.90;100.00
55070;BME280;40967;52.070;8.596;2023-08-31T04:18:43;99722.06;;;11.91;100.00
55070;BME280;40967;52.070;8.596;2023-08-31T04:21:08;99722.06;;;11.91;100.00
55070;BME280;40967;52.070;8.596;2023-08-31T04:23:33;99728.03;;;11.93;100.00
55070;BME280;40967;52.070;8.596;2023-08-31T04:25:59;99719.97;;;11.88;100.00
55070;BME280;40967;52.070;8.596;2023-08-31T04:28:25;99743.53;;;11.92;100.00
55070;BME280;40967;52.070;8.596;2023-08-31T04:30:50;99728.31;;;11.91;100.00
55070;BME280;40967;52.070;8.596;2023-08-31T04:33:19;99732.53;;;11.84;100.00
55070;BME280;40967;52.070;8.596;2023-08-31T04:35:44;99735.97;;;11.89;100.00
55070;BME280;40967;52.070;8.596;2023-08-31T04:38:10;99737.34;;;11.87;100.00
55070;BME280;40967;52.070;8.596;2023-08-31T04:40:36;99727.59;;;11.86;100.00
55070;BME280;40967;52.070;8.596;2023-08-31T04:43:02;99730.44;;;11.94;100.00
55070;BME280;40967;52.070;8.596;2023-08-31T04:45:28;99742.88;;;12.00;100.00
55070;BME280;40967;52.070;8.596;2023-08-31T04:47:53;99733.59;;;12.01;100.00
55070;BME280;40967;52.070;8.596;2023-08-31T04:50:19;99738.41;;;12.04;100.00
55070;BME280;40967;52.070;8.596;2023-08-31T04:52:44;99742.78;;;12.05;100.00
55070;BME280;40967;52.070;8.596;2023-08-31T04:55:10;99743.28;;;12.07;100.00
55070;BME280;40967;52.070;8.596;2023-08-31T04:57:38;99738.06;;;12.11;100.00
55070;BME280;40967;52.070;8.596;2023-08-31T05:00:04;99741.06;;;12.09;100.00
55070;BME280;40967;52.070;8.596;2023-08-31T05:02:33;99741.00;;;12.14;100.00
55070;BME280;40967;52.070;8.596;2023-08-31T05:04:58;99739.97;;;12.10;100.00
55070;BME280;40967;52.070;8.596;2023-08-31T05:07:24;99750.03;;;12.10;100.00
55070;BME280;40967;52.070;8.596;2023-08-31T05:09:49;99737.47;;;12.14;100.00
55070;BME280;40967;52.070;8.596;2023-08-31T05:12:15;99746.63;;;12.18;100.00
55070;BME280;40967;52.070;8.596;2023-08-31T05:14:42;99746.84;;;12.21;100.00
55070;BME280;40967;52.070;8.596;2023-08-31T05:17:08;99749.75;;;12.25;100.00
55070;BME280;40967;52.070;8.596;2023-08-31T05:19:33;99742.09;;;12.27;100.00
55070;BME280;40967;52.070;8.596;2023-08-31T05:21:58;99746.25;;;12.24;100.00
55070;BME280;40967;52.070;8.596;2023-08-31T05:24:24;99762.25;;;12.26;100.00
55070;BME280;40967;52.070;8.596;2023-08-31T05:26:49;99761.75;;;12.24;100.00
55070;BME280;40967;52.070;8.596;2023-08-31T05:29:15;99774.22;;;12.25;100.00
55070;BME280;40967;52.070;8.596;2023-08-31T05:31:41;99767.19;;;12.24;100.00
55070;BME280;40967;52.070;8.596;2023-08-31T05:34:09;99766.28;;;12.28;100.00
55070;BME280;40967;52.070;8.596;2023-08-31T05:36:35;99767.69;;;12.26;100.00
55070;BME280;40967;52.070;8.596;2023-08-31T05:39:01;99771.72;;;12.28;100.00
55070;BME280;40967;52.070;8.596;2023-08-31T05:41:27;99784.44;;;12.33;100.00
55070;BME280;40967;52.070;8.596;2023-08-31T05:43:52;99773.13;;;12.26;100.00
55070;BME280;40967;52.070;8.596;2023-08-31T05:46:18;99785.47;;;12.37;100.00
55070;BME280;40967;52.070;8.596;2023-08-31T05:48:43;99772.66;;;12.37;100.00
55070;BME280;40967;52.070;8.596;2023-08-31T05:51:09;99770.84;;;12.33;100.00
55070;BME280;40967;52.070;8.596;2023-08-31T05:53:34;99781.72;;;12.33;100.00
55070;BME280;40967;52.070;8.596;2023-08-31T05:56:00;99779.31;;;12.31;100.00
55070;BME280;40967;52.070;8.596;2023-08-31T05:58:36;99772.84;;;12.27;100.00
55070;BME280;40967;52.070;8.596;2023-08-31T06:01:05;99765.16;;;12.16;100.00
55070;BME280;40967;52.070;8.596;2023-08-31T06:03:31;99777.97;;;12.29;100.00
55070;BME280;40967;52.070;8.596;2023-08-31T06:05:57;99778.69;;;12.34;100.00
55070;BME280;40967;52.070;8.596;2023-08-31T06:08:23;99778.09;;;12.37;100.00
55070;BME280;40967;52.070;8.596;2023-08-31T06:10:50;99785.38;;;12.42;100.00
55070;BME280;40967;52.070;8.596;2023-08-31T06:13:16;99781.53;;;12.43;100.00
55070;BME280;40967;52.070;8.596;2023-08-31T06:15:41;99792.03;;;12.49;100.00
55070;BME280;40967;52.070;8.596;2023-08-31T06:18:06;99785.19;;;12.52;100.00
55070;BME280;40967;52.070;8.596;2023-08-31T06:20:32;99779.44;;;12.53;100.00
55070;BME280;40967;52.070;8.596;2023-08-31T06:22:59;99790.03;;;12.55;100.00
55070;BME280;40967;52.070;8.596;2023-08-31T06:25:24;99795.47;;;12.55;100.00
55070;BME280;40967;52.070;8.596;2023-08-31T06:27:50;99798.28;;;12.50;100.00
55070;BME280;40967;52.070;8.596;2023-08-31T06:30:17;99800.19;;;12.49;100.00
55070;BME280;40967;52.070;8.596;2023-08-31T06:32:44;99790.72;;;12.47;100.00
55070;BME280;40967;52.070;8.596;2023-08-31T06:35:13;99796.16;;;12.47;100.00
55070;BME280;40967;52.070;8.596;2023-08-31T06:37:41;99789.59;;;12.48;100.00
55070;BME280;40967;52.070;8.596;2023-08-31T06:40:07;99795.25;;;12.51;100.00
55070;BME280;40967;52.070;8.596;2023-08-31T06:42:36;99791.44;;;12.52;100.00
55070;BME280;40967;52.070;8.596;2023-08-31T06:45:04;99806.06;;;12.56;100.00
55070;BME280;40967;52.070;8.596;2023-08-31T06:47:30;99800.81;;;12.60;100.00
55070;BME280;40967;52.070;8.596;2023-08-31T06:49:56;99805.06;;;12.52;100.00
55070;BME280;40967;52.070;8.596;2023-08-31T06:52:23;99810.72;;;12.56;100.00
55070;BME280;40967;52.070;8.596;2023-08-31T06:54:48;99816.34;;;12.60;100.00
55070;BME280;40967;52.070;8.596;2023-08-31T06:57:13;99806.78;;;12.62;100.00
55070;BME280;40967;52.070;8.596;2023-08-31T06:59:39;99805.69;;;12.63;100.00
55070;BME280;40967;52.070;8.596;2023-08-31T07:02:05;99811.91;;;12.64;100.00
55070;BME280;40967;52.070;8.596;2023-08-31T07:04:30;99819.66;;;12.70;100.00
55070;BME280;40967;52.070;8.596;2023-08-31T07:06:56;99808.72;;;12.75;100.00
55070;BME280;40967;52.070;8.596;2023-08-31T07:09:21;99819.91;;;12.87;100.00
55070;BME280;40967;52.070;8.596;2023-08-31T07:11:47;99820.34;;;12.94;100.00
55070;BME280;40967;52.070;8.596;2023-08-31T07:14:12;99828.44;;;13.13;100.00
55070;BME280;40967;52.070;8.596;2023-08-31T07:16:37;99827.81;;;13.29;100.00
55070;BME280;40967;52.070;8.596;2023-08-31T07:19:03;99816.91;;;13.43;100.00
55070;BME280;40967;52.070;8.596;2023-08-31T07:21:28;99813.66;;;13.54;100.00
55070;BME280;40967;52.070;8.596;2023-08-31T07:23:54;99827.38;;;13.63;100.00
55070;BME280;40967;52.070;8.596;2023-08-31T07:26:20;99829.16;;;13.67;100.00
55070;BME280;40967;52.070;8.596;2023-08-31T07:28:46;99824.22;;;13.69;100.00
55070;BME280;40967;52.070;8.596;2023-08-31T07:31:12;99829.16;;;13.67;100.00
55070;BME280;40967;52.070;8.596;2023-08-31T07:33:40;99827.13;;;13.73;100.00
55070;BME280;40967;52.070;8.596;2023-08-31T07:36:06;99829.03;;;13.73;100.00
55070;BME280;40967;52.070;8.596;2023-08-31T07:38:32;99829.66;;;13.69;100.00
55070;BME280;40967;52.070;8.596;2023-08-31T07:40:57;99833.09;;;13.75;100.00
55070;BME280;40967;52.070;8.596;2023-08-31T07:43:23;99834.41;;;13.78;100.00
55070;BME280;40967;52.070;8.596;2023-08-31T07:45:49;99838.44;;;13.80;100.00
55070;BME280;40967;52.070;8.596;2023-08-31T07:48:15;99843.44;;;13.87;100.00
55070;BME280;40967;52.070;8.596;2023-08-31T07:50:41;99842.34;;;13.88;100.00
55070;BME280;40967;52.070;8.596;2023-08-31T07:53:07;99837.72;;;13.88;100.00
55070;BME280;40967;52.070;8.596;2023-08-31T07:55:32;99842.88;;;13.90;100.00
55070;BME280;40967;52.070;8.596;2023-08-31T07:57:58;99843.63;;;14.04;100.00
55070;BME280;40967;52.070;8.596;2023-08-31T08:00:23;99837.75;;;14.10;100.00
55070;BME280;40967;52.070;8.596;2023-08-31T08:02:49;99839.03;;;14.13;100.00
55070;BME280;40967;52.070;8.596;2023-08-31T08:05:14;99851.06;;;14.12;100.00
55070;BME280;40967;52.070;8.596;2023-08-31T08:07:43;99851.69;;;14.09;100.00
55070;BME280;40967;52.070;8.596;2023-08-31T08:10:09;99852.66;;;14.13;100.00
55070;BME280;40967;52.070;8.596;2023-08-31T08:12:38;99855.38;;;14.13;100.00
55070;BME280;40967;52.070;8.596;2023-08-31T08:15:05;99854.59;;;14.12;100.00
55070;BME280;40967;52.070;8.596;2023-08-31T08:17:32;99856.72;;;14.15;100.00
55070;BME280;40967;52.070;8.596;2023-08-31T08:19:57;99863.09;;;14.11;100.00
55070;BME280;40967;52.070;8.596;2023-08-31T08:22:24;99873.91;;;14.02;100.00
55070;BME280;40967;52.070;8.596;2023-08-31T08:24:50;99866.47;;;13.94;100.00
55070;BME280;40967;52.070;8.596;2023-08-31T08:27:15;99875.09;;;13.88;100.00
55070;BME280;40967;52.070;8.596;2023-08-31T08:29:43;99861.63;;;13.91;100.00
55070;BME280;40967;52.070;8.596;2023-08-31T08:32:08;99867.25;;;14.08;100.00
55070;BME280;40967;52.070;8.596;2023-08-31T08:34:34;99881.56;;;14.14;100.00
55070;BME280;40967;52.070;8.596;2023-08-31T08:36:59;99870.34;;;14.15;100.00
55070;BME280;40967;52.070;8.596;2023-08-31T08:39:25;99867.63;;;14.15;100.00
55070;BME280;40967;52.070;8.596;2023-08-31T08:41:50;99872.44;;;14.18;100.00
55070;BME280;40967;52.070;8.596;2023-08-31T08:44:20;99870.22;;;14.20;100.00
55070;BME280;40967;52.070;8.596;2023-08-31T08:46:47;99863.59;;;14.26;100.00
55070;BME280;40967;52.070;8.596;2023-08-31T08:49:14;99856.19;;;14.27;100.00
55070;BME280;40967;52.070;8.596;2023-08-31T08:51:40;99873.50;;;14.44;100.00
55070;BME280;40967;52.070;8.596;2023-08-31T08:54:06;99865.53;;;14.56;100.00
55070;BME280;40967;52.070;8.596;2023-08-31T08:56:33;99870.38;;;14.59;100.00
55070;BME280;40967;52.070;8.596;2023-08-31T08:58:59;99878.50;;;14.73;100.00
55070;BME280;40967;52.070;8.596;2023-08-31T09:01:25;99871.78;;;14.79;100.00
55070;BME280;40967;52.070;8.596;2023-08-31T09:03:51;99888.53;;;14.86;100.00
55070;BME280;40967;52.070;8.596;2023-08-31T09:06:16;99876.50;;;14.87;100.00
55070;BME280;40967;52.070;8.596;2023-08-31T09:08:42;99888.75;;;14.98;100.00
55070;BME280;40967;52.070;8.596;2023-08-31T09:11:07;99873.94;;;15.21;100.00
55070;BME280;40967;52.070;8.596;2023-08-31T09:13:33;99865.78;;;15.38;100.00
55070;BME280;40967;52.070;8.596;2023-08-31T09:15:59;99878.13;;;15.58;100.00
55070;BME280;40967;52.070;8.596;2023-08-31T09:18:29;99871.03;;;15.57;100.00
55070;BME280;40967;52.070;8.596;2023-08-31T09:20:57;99872.47;;;15.54;100.00
55070;BME280;40967;52.070;8.596;2023-08-31T09:23:22;99860.25;;;15.60;100.00
55070;BME280;40967;52.070;8.596;2023-08-31T09:25:53;99869.28;;;15.69;100.00
55070;BME280;40967;52.070;8.596;2023-08-31T09:28:21;99865.63;;;15.91;99.51
55070;BME280;40967;52.070;8.596;2023-08-31T09:30:47;99862.91;;;16.00;97.93
55070;BME280;40967;52.070;8.596;2023-08-31T09:33:15;99865.66;;;16.08;97.30
55070;BME280;40967;52.070;8.596;2023-08-31T09:35:51;99861.13;;;16.29;95.52
55070;BME280;40967;52.070;8.596;2023-08-31T09:38:17;99865.66;;;16.51;93.91
55070;BME280;40967;52.070;8.596;2023-08-31T09:40:42;99870.78;;;16.69;93.10
55070;BME280;40967;52.070;8.596;2023-08-31T09:43:08;99865.41;;;16.90;93.09
55070;BME280;40967;52.070;8.596;2023-08-31T09:45:34;99865.41;;;16.90;91.08
55070;BME280;40967;52.070;8.596;2023-08-31T09:48:02;99872.00;;;16.89;91.18
55070;BME280;40967;52.070;8.596;2023-08-31T09:50:32;99876.22;;;16.86;91.28
55070;BME280;40967;52.070;8.596;2023-08-31T09:53:03;99878.06;;;17.12;90.35
55070;BME280;40967;52.070;8.596;2023-08-31T09:55:30;99867.91;;;17.12;88.27
55070;BME280;40967;52.070;8.596;2023-08-31T09:57:57;99874.09;;;17.00;88.25
55070;BME280;40967;52.070;8.596;2023-08-31T10:00:29;99867.94;;;17.03;88.40
55070;BME280;40967;52.070;8.596;2023-08-31T10:02:57;99870.78;;;17.24;87.90
55070;BME280;40967;52.070;8.596;2023-08-31T10:05:23;99863.41;;;17.45;88.01
55070;BME280;40967;52.070;8.596;2023-08-31T10:07:50;99863.25;;;17.79;87.60
55070;BME280;40967;52.070;8.596;2023-08-31T10:10:16;99872.56;;;18.07;85.98
55070;BME280;40967;52.070;8.596;2023-08-31T10:12:42;99866.59;;;18.26;83.79
55070;BME280;40967;52.070;8.596;2023-08-31T10:15:10;99879.44;;;18.43;81.59
55070;BME280;40967;52.070;8.596;2023-08-31T10:17:36;99879.06;;;18.24;80.92
55070;BME280;40967;52.070;8.596;2023-08-31T10:20:02;99886.50;;;18.02;80.59
55070;BME280;40967;52.070;8.596;2023-08-31T10:22:28;99892.09;;;17.85;81.54
55070;BME280;40967;52.070;8.596;2023-08-31T10:25:05;99899.25;;;17.49;82.61
55070;BME280;40967;52.070;8.596;2023-08-31T10:27:44;99903.88;;;17.11;85.48
55070;BME280;40967;52.070;8.596;2023-08-31T10:33:19;99893.19;;;16.63;88.66
55070;BME280;40967;52.070;8.596;2023-08-31T10:38:32;99889.16;;;16.60;90.71
55070;BME280;40967;52.070;8.596;2023-08-31T10:43:57;99890.75;;;16.44;93.00
55070;BME280;40967;52.070;8.596;2023-08-31T10:51:30;99882.69;;;16.65;92.93
55070;BME280;40967;52.070;8.596;2023-08-31T10:54:05;99895.44;;;16.78;93.45
55070;BME280;40967;52.070;8.596;2023-08-31T10:56:31;99884.94;;;16.88;93.62
55070;BME280;40967;52.070;8.596;2023-08-31T10:58:58;99887.16;;;16.95;92.63
55070;BME280;40967;52.070;8.596;2023-08-31T11:01:53;99881.66;;;17.03;92.73
55070;BME280;40967;52.070;8.596;2023-08-31T11:04:22;99883.31;;;17.34;92.65
55070;BME280;40967;52.070;8.596;2023-08-31T11:06:48;99873.19;;;17.63;90.62
55070;BME280;40967;52.070;8.596;2023-08-31T11:09:21;99894.84;;;17.85;87.53
55070;BME280;40967;52.070;8.596;2023-08-31T11:11:47;99876.03;;;17.75;84.05
55070;BME280;40967;52.070;8.596;2023-08-31T11:14:15;99873.00;;;17.68;82.79
55070;BME280;40967;52.070;8.596;2023-08-31T11:16:42;99879.63;;;17.67;82.71
55070;BME280;40967;52.070;8.596;2023-08-31T11:19:08;99868.84;;;17.62;80.01
55070;BME280;40967;52.070;8.596;2023-08-31T11:21:36;99859.66;;;17.58;80.50
55070;BME280;40967;52.070;8.596;2023-08-31T11:24:02;99869.94;;;17.70;78.76
55070;BME280;40967;52.070;8.596;2023-08-31T11:26:31;99869.63;;;17.92;79.95
55070;BME280;40967;52.070;8.596;2023-08-31T11:28:56;99857.72;;;18.29;79.50
55070;BME280;40967;52.070;8.596;2023-08-31T11:31:25;99867.34;;;18.56;77.41
55070;BME280;40967;52.070;8.596;2023-08-31T11:33:51;99868.09;;;18.77;76.55
55070;BME280;40967;52.070;8.596;2023-08-31T11:36:17;99862.41;;;18.94;75.69
55070;BME280;40967;52.070;8.596;2023-08-31T11:38:48;99870.25;;;19.04;74.48
55070;BME280;40967;52.070;8.596;2023-08-31T11:41:14;99874.38;;;19.22;73.68
55070;BME280;40967;52.070;8.596;2023-08-31T11:43:40;99877.38;;;19.29;73.37
55070;BME280;40967;52.070;8.596;2023-08-31T11:46:06;99883.13;;;19.36;72.21
55070;BME280;40967;52.070;8.596;2023-08-31T11:48:33;99886.13;;;19.31;71.22
55070;BME280;40967;52.070;8.596;2023-08-31T11:50:59;99893.88;;;19.29;70.37
55070;BME280;40967;52.070;8.596;2023-08-31T11:53:26;99901.34;;;18.84;72.88
55070;BME280;40967;52.070;8.596;2023-08-31T11:55:52;99908.88;;;18.34;77.21
55070;BME280;40967;52.070;8.596;2023-08-31T11:58:19;99903.44;;;18.04;80.52
55070;BME280;40967;52.070;8.596;2023-08-31T12:00:45;99906.31;;;17.87;82.96
55070;BME280;40967;52.070;8.596;2023-08-31T12:03:12;99905.94;;;17.68;85.11
55070;BME280;40967;52.070;8.596;2023-08-31T12:05:48;99917.31;;;17.41;85.33
55070;BME280;40967;52.070;8.596;2023-08-31T12:08:14;99917.72;;;17.23;85.48
55070;BME280;40967;52.070;8.596;2023-08-31T12:10:41;99909.34;;;17.19;86.87
55070;BME280;40967;52.070;8.596;2023-08-31T12:13:10;99918.69;;;17.18;87.07
55070;BME280;40967;52.070;8.596;2023-08-31T12:15:36;99916.25;;;17.25;86.92
55070;BME280;40967;52.070;8.596;2023-08-31T12:18:09;99928.34;;;17.24;86.52
55070;BME280;40967;52.070;8.596;2023-08-31T12:20:52;99942.53;;;17.26;86.98
55070;BME280;40967;52.070;8.596;2023-08-31T12:23:19;99939.53;;;17.11;88.19
55070;BME280;40967;52.070;8.596;2023-08-31T12:25:51;99942.16;;;16.90;89.57
55070;BME280;40967;52.070;8.596;2023-08-31T12:28:18;99947.00;;;16.67;91.73
55070;BME280;40967;52.070;8.596;2023-08-31T12:30:54;99939.25;;;16.52;93.75
55070;BME280;40967;52.070;8.596;2023-08-31T12:33:21;99934.25;;;16.37;95.79
55070;BME280;40967;52.070;8.596;2023-08-31T12:35:47;99918.63;;;16.21;96.47
55070;BME280;40967;52.070;8.596;2023-08-31T12:38:13;99911.50;;;16.03;97.75
55070;BME280;40967;52.070;8.596;2023-08-31T12:40:39;99921.31;;;15.95;98.64
55070;BME280;40967;52.070;8.596;2023-08-31T12:43:05;99920.22;;;16.05;100.00
55070;BME280;40967;52.070;8.596;2023-08-31T12:45:31;99924.88;;;16.21;100.00
55070;BME280;40967;52.070;8.596;2023-08-31T12:47:56;99913.47;;;16.45;100.00
55070;BME280;40967;52.070;8.596;2023-08-31T12:50:22;99915.88;;;16.72;100.00
55070;BME280;40967;52.070;8.596;2023-08-31T12:52:48;99918.16;;;16.87;100.00
55070;BME280;40967;52.070;8.596;2023-08-31T12:55:14;99927.78;;;16.93;99.94
55070;BME280;40967;52.070;8.596;2023-08-31T12:57:43;99924.56;;;16.91;97.75
55070;BME280;40967;52.070;8.596;2023-08-31T13:00:09;99924.22;;;17.01;96.63
55070;BME280;40967;52.070;8.596;2023-08-31T13:02:39;99923.41;;;17.09;96.10
55070;BME280;40967;52.070;8.596;2023-08-31T13:05:06;99929.63;;;17.27;95.67
55070;BME280;40967;52.070;8.596;2023-08-31T13:07:38;99927.66;;;17.44;96.38
55070;BME280;40967;52.070;8.596;2023-08-31T13:10:05;99925.97;;;17.60;96.05
55070;BME280;40967;52.070;8.596;2023-08-31T13:12:32;99930.25;;;17.78;94.46
55070;BME280;40967;52.070;8.596;2023-08-31T13:14:58;99915.19;;;17.84;93.43
55070;BME280;40967;52.070;8.596;2023-08-31T13:17:23;99922.53;;;18.01;92.80